createdAt,value
2023-05-05T00:05:26.455Z,66.11
2023-05-05T00:08:53.790Z,66.36
2023-05-05T00:11:31.519Z,66.67
2023-05-05T00:14:11.331Z,67.24
2023-05-05T00:16:48.499Z,67.39
2023-05-05T00:19:28.688Z,67.37
2023-05-05T00:22:01.121Z,67.58
2023-05-05T00:24:37.225Z,67.54
2023-05-05T00:27:15.013Z,67.58
2023-05-05T00:30:10.481Z,67.64
2023-05-05T00:32:48.522Z,67.78
2023-05-05T00:35:22.515Z,68.09
2023-05-05T00:38:00.133Z,68.16
2023-05-05T00:40:47.681Z,68.73
2023-05-05T00:43:16.717Z,68.82
2023-05-05T00:45:50.906Z,68.90
2023-05-05T00:48:25.324Z,68.90
2023-05-05T00:51:12.472Z,68.99
2023-05-05T00:54:17.505Z,68.98
2023-05-05T00:56:52.680Z,69.30
2023-05-05T00:59:28.138Z,69.38
2023-05-05T01:02:24.320Z,69.49
2023-05-05T01:04:58.745Z,69.40
2023-05-05T01:08:15.739Z,69.57
2023-05-05T01:10:54.432Z,69.56
2023-05-05T01:13:55.918Z,69.87
2023-05-05T01:16:31.890Z,70.07
2023-05-05T01:23:42.526Z,70.41
2023-05-05T01:26:57.789Z,70.65
2023-05-05T01:30:19.923Z,70.87
2023-05-05T01:32:56.526Z,70.70
2023-05-05T01:35:42.296Z,70.77
2023-05-05T01:38:44.448Z,70.59
2023-05-05T01:41:28.998Z,70.58
2023-05-05T01:44:11.479Z,70.49
2023-05-05T01:46:42.510Z,70.45
2023-05-05T01:49:17.397Z,70.44
2023-05-05T01:51:52.137Z,70.47
2023-05-05T01:54:27.258Z,70.28
2023-05-05T01:57:10.711Z,70.39
2023-05-05T01:59:49.499Z,70.31
2023-05-05T02:02:33.466Z,70.53
2023-05-05T02:05:11.930Z,70.73
2023-05-05T02:07:52.638Z,70.92
2023-05-05T02:10:21.880Z,70.92
2023-05-05T02:12:56.102Z,71.17
2023-05-05T02:15:30.136Z,71.28
2023-05-05T02:18:03.832Z,71.52
2023-05-05T02:21:26.577Z,71.76
2023-05-05T02:24:07.509Z,71.65
2023-05-05T02:27:08.664Z,71.65
2023-05-05T02:29:56.697Z,71.77
2023-05-05T02:32:56.226Z,71.98
2023-05-05T02:36:16.306Z,72.05
2023-05-05T02:39:05.624Z,72.17
2023-05-05T02:42:21.807Z,72.03
2023-05-05T02:44:57.984Z,72.05
2023-05-05T02:47:39.973Z,72.32
2023-05-05T02:50:39.656Z,72.24
2023-05-05T02:53:25.255Z,72.43
2023-05-05T03:01:23.578Z,72.51
2023-05-05T03:04:21.423Z,72.78
2023-05-05T03:10:51.171Z,72.15
2023-05-05T03:13:24.391Z,72.06
2023-05-05T03:16:13.383Z,71.93
2023-05-05T03:18:48.256Z,71.72
2023-05-05T03:21:30.285Z,71.67
2023-05-05T03:24:01.209Z,71.48
2023-05-05T03:26:57.331Z,71.53
2023-05-05T03:29:42.856Z,71.45
2023-05-05T03:36:51.409Z,70.92
2023-05-05T03:39:29.334Z,70.57
2023-05-05T03:42:06.455Z,70.69
2023-05-05T03:44:45.272Z,70.56
2023-05-05T03:52:03.625Z,70.84
2023-05-05T04:02:03.742Z,70.44
2023-05-05T04:05:09.061Z,70.20
2023-05-05T04:08:17.968Z,70.30
2023-05-05T04:11:02.572Z,70.18
2023-05-05T04:14:07.028Z,70.12
2023-05-05T04:20:19.297Z,68.95
2023-05-05T04:22:55.809Z,68.90
2023-05-05T04:25:39.584Z,69.10
2023-05-05T04:28:16.779Z,68.95
2023-05-05T04:30:55.992Z,68.62
2023-05-05T04:33:47.018Z,68.38
2023-05-05T04:36:20.148Z,68.05
2023-05-05T04:38:54.233Z,67.45
2023-05-05T04:41:29.522Z,67.01
2023-05-05T04:44:11.865Z,67.05
2023-05-05T04:47:45.221Z,66.80
2023-05-05T04:50:51.167Z,66.53
2023-05-05T04:53:43.345Z,66.35
2023-05-05T04:56:36.747Z,66.51
2023-05-05T04:59:21.166Z,66.99
2023-05-05T05:02:16.302Z,67.24
2023-05-05T05:05:03.146Z,66.92
2023-05-05T05:11:04.207Z,65.65
2023-05-05T05:14:02.737Z,65.44
2023-05-05T05:17:02.091Z,65.87
2023-05-05T05:19:40.968Z,65.72
2023-05-05T05:23:30.942Z,65.81
2023-05-05T05:26:04.949Z,65.78
2023-05-05T05:28:52.372Z,66.03
2023-05-05T05:31:45.358Z,65.62
2023-05-05T05:35:21.543Z,65.54
2023-05-05T05:37:58.320Z,65.11
2023-05-05T05:40:34.919Z,64.90
2023-05-05T05:43:34.558Z,64.24
2023-05-05T05:46:11.959Z,64.17
2023-05-05T05:52:25.917Z,63.87
2023-05-05T05:55:21.360Z,64.07
2023-05-05T05:58:31.349Z,64.00
2023-05-05T06:01:26.498Z,63.83
2023-05-05T06:04:28.760Z,63.90
2023-05-05T06:07:15.749Z,63.92
2023-05-05T06:10:43.858Z,63.37
2023-05-05T06:14:13.166Z,63.00
2023-05-05T06:17:04.420Z,62.38
2023-05-05T06:20:06.358Z,62.10
2023-05-05T06:22:59.568Z,62.22
2023-05-05T06:25:47.284Z,62.54
2023-05-05T06:32:10.201Z,62.79
2023-05-05T06:35:52.912Z,62.83
2023-05-05T06:49:46.020Z,62.41
2023-05-05T06:52:29.962Z,61.63
2023-05-05T06:55:55.640Z,61.79
2023-05-05T06:58:51.104Z,61.59
2023-05-05T07:01:29.703Z,61.43
2023-05-05T07:04:04.477Z,61.24
2023-05-05T07:07:25.989Z,61.05
2023-05-05T07:10:24.492Z,61.24
2023-05-05T07:13:03.531Z,60.99
2023-05-05T07:15:56.217Z,61.36
2023-05-05T07:19:10.104Z,60.96
2023-05-05T07:22:14.214Z,60.80
2023-05-05T07:28:19.048Z,60.82
2023-05-05T07:32:11.602Z,60.73
2023-05-05T07:34:47.599Z,60.11
2023-05-05T07:38:29.838Z,59.99
2023-05-05T07:41:21.192Z,59.87
2023-05-05T07:44:23.487Z,59.64
2023-05-05T07:47:40.999Z,59.47
2023-05-05T07:53:57.657Z,59.09
2023-05-05T07:57:26.649Z,59.12
2023-05-05T08:00:13.745Z,58.72
2023-05-05T08:03:08.257Z,58.69
2023-05-05T08:05:54.452Z,58.86
2023-05-05T08:09:27.768Z,59.17
2023-05-05T08:12:19.581Z,59.35
2023-05-05T08:15:20.333Z,59.82
2023-05-05T08:18:07.267Z,60.17
2023-05-05T08:25:14.456Z,59.77
2023-05-05T08:27:59.211Z,59.76
2023-05-05T08:31:32.117Z,59.75
2023-05-05T08:39:31.740Z,60.02
2023-05-05T08:47:09.558Z,59.94
2023-05-05T08:53:51.773Z,59.24
2023-05-05T08:57:27.588Z,58.77
2023-05-05T09:04:08.221Z,58.00
2023-05-05T09:07:04.754Z,57.32
2023-05-05T09:10:44.476Z,56.66
2023-05-05T09:13:53.222Z,56.29
2023-05-05T11:10:34.149Z,47.95
2023-05-05T11:23:40.818Z,47.14
2023-05-05T11:27:23.120Z,46.83
2023-05-05T12:18:47.774Z,43.59
2023-05-05T12:22:00.064Z,43.00
2023-05-05T12:30:00.406Z,43.26
2023-05-05T12:32:51.570Z,42.88
2023-05-05T12:39:56.782Z,42.10
2023-05-05T12:43:39.931Z,42.24
2023-05-05T12:47:32.624Z,42.57
2023-05-05T12:53:52.512Z,41.86
2023-05-05T12:56:52.323Z,42.12
2023-05-05T13:00:04.177Z,41.79
2023-05-05T13:14:15.779Z,42.46
2023-05-05T13:17:20.629Z,41.99
2023-05-05T13:25:01.535Z,42.41
2023-05-05T13:28:11.322Z,42.12
2023-05-05T13:32:51.252Z,42.27
2023-05-05T13:36:24.060Z,41.99
2023-05-05T13:43:25.472Z,41.62
2023-05-05T13:47:10.851Z,41.59
2023-05-05T13:50:50.854Z,41.36
2023-05-05T13:55:15.557Z,40.89
2023-05-05T13:58:57.092Z,40.54
2023-05-05T14:01:44.527Z,40.52
2023-05-05T14:04:52.237Z,40.30
2023-05-05T14:08:36.365Z,39.76
2023-05-05T14:11:17.703Z,39.59
2023-05-05T14:18:36.581Z,39.39
2023-05-05T14:21:41.329Z,39.52
2023-05-05T14:25:36.550Z,39.56
2023-05-05T14:28:58.218Z,39.66
2023-05-05T14:31:38.342Z,39.53
2023-05-05T14:34:33.133Z,39.60
2023-05-05T14:37:38.986Z,39.80
2023-05-05T14:41:46.702Z,39.55
2023-05-05T14:44:35.355Z,39.64
2023-05-05T15:02:28.028Z,38.95
2023-05-05T15:05:32.862Z,39.00
2023-05-05T15:08:52.435Z,38.93
2023-05-05T15:12:04.286Z,38.98
2023-05-05T15:15:43.003Z,38.93
2023-05-05T15:18:26.962Z,38.99
2023-05-05T15:22:27.373Z,39.06
2023-05-05T15:25:03.285Z,39.28
2023-05-05T15:32:36.957Z,38.87
2023-05-05T15:35:54.942Z,38.94
2023-05-05T15:39:23.737Z,39.18
2023-05-05T15:46:30.205Z,39.35
2023-05-05T15:49:39.710Z,39.11
2023-05-05T15:52:27.200Z,39.14
2023-05-05T15:59:59.212Z,39.30
2023-05-05T16:10:03.949Z,40.16
2023-05-05T16:12:48.487Z,40.60
2023-05-05T16:16:33.441Z,41.15
2023-05-05T16:19:56.549Z,41.44
2023-05-05T16:36:45.929Z,40.89
2023-05-05T16:48:07.479Z,41.12
2023-05-05T17:13:59.296Z,40.65
2023-05-05T17:22:18.191Z,41.76
2023-05-05T17:25:28.740Z,41.72
2023-05-05T18:11:48.532Z,41.32
2023-05-05T18:25:38.469Z,42.01
2023-05-05T19:26:42.615Z,41.50
2023-05-05T19:30:06.299Z,41.12
2023-05-05T19:37:20.255Z,41.44
2023-05-05T19:49:00.013Z,40.74
2023-05-05T19:56:19.452Z,41.55
2023-05-05T19:59:54.468Z,41.73
2023-05-05T20:06:51.361Z,42.07
2023-05-05T20:10:35.472Z,42.35
2023-05-05T20:13:41.210Z,42.40
2023-05-05T20:17:18.351Z,42.58
2023-05-05T20:20:19.230Z,42.76
2023-05-05T20:23:23.787Z,42.95
2023-05-05T20:39:20.219Z,43.59
2023-05-05T20:50:52.982Z,44.01
2023-05-05T20:57:39.085Z,44.44
2023-05-05T21:08:27.469Z,45.18
2023-05-05T21:11:25.753Z,45.26
2023-05-05T21:15:16.879Z,45.65
2023-05-05T21:18:16.129Z,45.74
2023-05-05T21:21:38.858Z,45.91
2023-05-05T21:24:34.684Z,46.10
2023-05-05T21:27:38.485Z,46.28
2023-05-05T21:38:51.059Z,47.21
2023-05-05T21:41:56.486Z,47.43
2023-05-05T21:44:42.862Z,47.65
2023-05-05T21:47:27.945Z,47.58
2023-05-05T21:50:06.740Z,47.89
2023-05-05T21:52:43.538Z,47.68
2023-05-05T21:56:14.728Z,47.94
2023-05-05T21:59:11.689Z,47.98
2023-05-05T22:01:49.667Z,48.46
2023-05-05T22:09:17.690Z,48.81
2023-05-05T22:16:19.888Z,48.91
2023-05-05T22:21:35.326Z,49.21
2023-05-05T22:24:17.204Z,49.28
2023-05-05T22:27:19.573Z,49.48
2023-05-05T22:31:15.102Z,49.58
2023-05-05T22:34:28.182Z,49.61
2023-05-05T22:37:49.655Z,49.88
2023-05-05T22:41:21.541Z,49.80
2023-05-05T22:44:11.658Z,49.99
2023-05-05T22:47:38.430Z,50.18
2023-05-05T22:50:37.767Z,49.94
2023-05-05T22:53:20.844Z,49.82
2023-05-05T22:56:07.039Z,49.80
2023-05-05T22:59:58.432Z,50.10
2023-05-05T23:05:55.861Z,50.09
2023-05-05T23:08:54.746Z,50.03
2023-05-05T23:11:47.394Z,50.25
2023-05-05T23:14:38.759Z,50.41
2023-05-05T23:18:06.639Z,50.72
2023-05-05T23:20:48.956Z,50.66
2023-05-05T23:23:33.475Z,50.68
2023-05-05T23:26:18.352Z,50.90
2023-05-05T23:28:54.928Z,51.01
2023-05-05T23:32:04.429Z,51.23
2023-05-05T23:34:51.500Z,51.09
2023-05-05T23:37:25.906Z,51.14
2023-05-05T23:39:59.276Z,51.38
2023-05-05T23:43:24.456Z,51.55
2023-05-05T23:46:15.232Z,51.59
2023-05-05T23:48:50.421Z,51.67
2023-05-05T23:51:42.591Z,51.82
2023-05-05T23:54:52.105Z,51.85
2023-05-05T23:57:23.461Z,52.08
